Time;durP1;ratioP1;P1;durP2;ratioP2;P2;SDS_P1;SDS_P2;PMS_P1;PMS_P2;Temp;Humidity;BMP_temperature;BMP_pressure;BME280_temperature;BME280_humidity;BME280_pressure;Samples;Min_cycle;Max_cycle;Signal;HPM_P1;HPM_P2
2022/05/19 00:01:04;;;;;;;12.02;3.55;;;20.40;99.90;;;;;;5111127;28;20091;-81
2022/05/19 00:03:36;;;;;;;6.50;3.50;;;20.40;99.90;;;;;;5106817;28;20067;-81
2022/05/19 00:06:04;;;;;;;13.25;4.15;;;20.40;99.90;;;;;;5091577;28;20023;-82
2022/05/19 00:08:30;;;;;;;9.85;4.30;;;20.40;99.90;;;;;;5100154;28;20125;-82
2022/05/19 00:10:59;;;;;;;5.95;3.67;;;20.40;99.90;;;;;;5111984;28;20529;-82
2022/05/19 00:13:27;;;;;;;10.73;3.95;;;20.30;99.90;;;;;;5107460;28;20024;-82
2022/05/19 00:15:53;;;;;;;8.45;4.43;;;20.30;99.90;;;;;;5092413;28;20443;-81
2022/05/19 00:18:19;;;;;;;6.00;3.60;;;20.30;99.90;;;;;;5079267;28;20051;-81
2022/05/19 00:20:44;;;;;;;12.27;3.80;;;20.20;99.90;;;;;;5108849;28;20027;-81
2022/05/19 00:23:11;;;;;;;12.43;4.32;;;20.20;99.90;;;;;;5081766;28;20078;-81
2022/05/19 00:25:36;;;;;;;13.80;3.72;;;20.20;99.90;;;;;;5114145;28;20027;-81
2022/05/19 00:28:05;;;;;;;7.70;3.90;;;20.20;99.90;;;;;;5115468;28;20015;-81
2022/05/19 00:30:32;;;;;;;5.25;3.35;;;20.20;99.90;;;;;;5116003;28;20020;-81
2022/05/19 00:32:57;;;;;;;7.65;3.60;;;20.20;99.90;;;;;;5114475;28;20110;-81
2022/05/19 00:35:23;;;;;;;13.82;3.95;;;20.10;99.90;;;;;;5114454;28;20149;-82
2022/05/19 00:37:48;;;;;;;8.35;4.10;;;20.10;99.90;;;;;;5114124;28;20475;-82
2022/05/19 00:40:17;;;;;;;8.15;4.32;;;20.10;99.90;;;;;;5114452;28;20019;-81
2022/05/19 00:42:45;;;;;;;13.73;3.95;;;20.10;99.90;;;;;;5115551;28;20078;-82
2022/05/19 00:45:17;;;;;;;11.32;4.20;;;20.10;99.90;;;;;;5114423;28;20027;-81
2022/05/19 00:48:18;;;;;;;4.88;3.60;;;20.10;99.90;;;;;;5112593;28;20084;-81
2022/05/19 00:51:06;;;;;;;9.65;3.67;;;20.10;99.90;;;;;;5076356;28;20044;-82
2022/05/19 00:53:41;;;;;;;9.27;4.32;;;20.10;99.90;;;;;;5110023;28;20027;-81
2022/05/19 00:56:34;;;;;;;5.28;3.63;;;20.10;99.90;;;;;;5107305;28;20023;-81
2022/05/19 00:59:09;;;;;;;9.52;3.35;;;20.10;99.90;;;;;;5096955;28;20549;-82
2022/05/19 01:01:42;;;;;;;7.70;4.15;;;20.10;99.90;;;;;;5096863;28;20027;-82
2022/05/19 01:04:22;;;;;;;4.63;3.38;;;20.00;99.90;;;;;;5095837;28;20040;-81
2022/05/19 01:06:50;;;;;;;7.55;3.22;;;20.00;99.90;;;;;;5095913;28;20016;-82
2022/05/19 01:09:17;;;;;;;13.45;3.47;;;20.00;99.90;;;;;;5113943;28;20115;-82
2022/05/19 01:11:44;;;;;;;10.30;3.92;;;20.00;99.90;;;;;;5114637;28;20027;-81
2022/05/19 01:14:10;;;;;;;5.57;3.95;;;19.90;99.90;;;;;;5104997;28;20544;-82
2022/05/19 01:16:37;;;;;;;6.72;3.72;;;20.00;99.90;;;;;;5085979;28;20055;-81
2022/05/19 01:19:15;;;;;;;3.72;2.97;;;19.90;99.90;;;;;;5113744;28;20016;-82
2022/05/19 01:21:41;;;;;;;8.23;3.78;;;19.90;99.90;;;;;;5114093;28;20016;-81
2022/05/19 01:24:32;;;;;;;6.85;3.75;;;19.90;99.90;;;;;;5094483;28;20027;-81
2022/05/19 01:26:57;;;;;;;6.70;3.50;;;19.90;99.90;;;;;;5095855;28;20061;-82
2022/05/19 01:29:27;;;;;;;6.78;3.45;;;19.90;99.90;;;;;;5113291;28;20039;-81
2022/05/19 01:31:54;;;;;;;6.03;4.30;;;19.90;99.90;;;;;;5098947;28;20121;-81
2022/05/19 01:34:26;;;;;;;15.77;3.70;;;19.90;99.90;;;;;;5098175;28;20032;-81
2022/05/19 01:36:52;;;;;;;11.55;4.57;;;19.80;99.90;;;;;;5096126;28;20229;-81
2022/05/19 01:39:23;;;;;;;11.82;3.92;;;19.90;99.90;;;;;;5113989;28;20035;-81
2022/05/19 01:42:12;;;;;;;5.40;3.60;;;19.90;99.90;;;;;;5114157;28;20016;-81
2022/05/19 01:44:57;;;;;;;6.05;3.72;;;19.90;99.90;;;;;;5093803;28;20488;-81
2022/05/19 01:47:43;;;;;;;7.43;4.22;;;20.00;99.90;;;;;;5078373;28;20031;-81
2022/05/19 01:50:35;;;;;;;9.18;3.47;;;19.90;99.90;;;;;;5110904;28;20027;-81
2022/05/19 01:53:20;;;;;;;8.40;4.65;;;20.00;99.90;;;;;;5094966;28;20028;-82
2022/05/19 01:55:55;;;;;;;8.60;3.90;;;20.00;99.90;;;;;;5114063;28;20051;-81
2022/05/19 01:58:36;;;;;;;7.90;4.13;;;20.00;99.90;;;;;;5094489;28;20031;-81
2022/05/19 02:01:05;;;;;;;7.93;3.95;;;20.00;99.90;;;;;;5096219;28;20051;-81
2022/05/19 02:03:45;;;;;;;10.43;4.20;;;20.10;99.90;;;;;;5107837;28;20117;-82
2022/05/19 02:06:27;;;;;;;9.63;4.28;;;20.10;99.90;;;;;;5074722;28;20062;-82
2022/05/19 02:08:58;;;;;;;7.03;4.07;;;20.00;99.90;;;;;;5103675;28;20016;-81
2022/05/19 02:11:36;;;;;;;9.25;3.40;;;20.00;99.90;;;;;;5094602;28;20507;-81
2022/05/19 02:14:08;;;;;;;7.60;3.72;;;20.10;99.90;;;;;;5094914;28;20111;-81
2022/05/19 02:16:34;;;;;;;4.53;3.40;;;20.10;99.90;;;;;;5124127;27;20027;-81
2022/05/19 02:19:00;;;;;;;7.45;4.07;;;20.10;99.90;;;;;;5128736;27;20020;-81
2022/05/19 02:21:28;;;;;;;9.75;4.38;;;20.10;99.90;;;;;;5113940;28;20024;-81
2022/05/19 02:23:58;;;;;;;9.82;3.80;;;20.10;99.90;;;;;;5093747;28;20030;-81
2022/05/19 02:26:24;;;;;;;8.50;4.30;;;20.10;99.90;;;;;;5113346;28;20486;-81
2022/05/19 02:28:57;;;;;;;7.30;3.83;;;20.10;99.90;;;;;;5089855;28;20020;-81
2022/05/19 02:31:23;;;;;;;12.43;5.07;;;20.00;99.90;;;;;;5110402;28;20107;-81
2022/05/19 02:33:49;;;;;;;6.43;3.95;;;20.10;99.90;;;;;;5113310;28;20111;-81
2022/05/19 02:36:15;;;;;;;8.90;3.63;;;20.10;99.90;;;;;;5112422;28;20084;-82
2022/05/19 02:38:41;;;;;;;6.40;4.22;;;20.10;99.90;;;;;;5107515;28;20089;-82
2022/05/19 02:41:07;;;;;;;21.42;5.13;;;20.10;99.90;;;;;;5111159;28;20027;-81
2022/05/19 02:43:33;;;;;;;9.00;3.72;;;20.10;99.90;;;;;;5110810;28;20066;-82
2022/05/19 02:45:58;;;;;;;7.25;3.72;;;20.10;99.90;;;;;;5112717;28;20020;-81
2022/05/19 02:48:24;;;;;;;9.90;4.22;;;20.10;99.90;;;;;;5112681;28;20102;-81
2022/05/19 02:50:52;;;;;;;14.43;4.38;;;20.00;99.90;;;;;;5113060;28;20452;-81
2022/05/19 02:53:19;;;;;;;7.63;4.18;;;20.00;99.90;;;;;;5111951;28;20023;-82
2022/05/19 02:55:49;;;;;;;6.47;3.97;;;20.00;99.90;;;;;;5111970;28;20049;-83
2022/05/19 02:58:15;;;;;;;13.38;3.72;;;20.10;99.90;;;;;;5113455;28;20035;-82
2022/05/19 03:00:45;;;;;;;8.63;3.60;;;20.00;99.90;;;;;;5099941;28;20491;-81
2022/05/19 03:03:12;;;;;;;10.07;4.40;;;20.00;99.90;;;;;;5092182;28;20085;-82
2022/05/19 03:05:38;;;;;;;9.43;3.65;;;20.00;99.90;;;;;;5110936;28;20028;-81
2022/05/19 03:08:06;;;;;;;7.55;3.95;;;20.00;99.90;;;;;;5112043;28;20475;-82
2022/05/19 03:10:31;;;;;;;6.28;3.90;;;20.00;99.90;;;;;;5107992;28;20032;-82
2022/05/19 03:12:58;;;;;;;5.90;3.40;;;20.00;99.90;;;;;;5106235;28;20081;-81
2022/05/19 03:15:24;;;;;;;7.03;3.50;;;20.00;99.90;;;;;;5118886;28;20047;-80
2022/05/19 03:17:50;;;;;;;4.53;3.45;;;20.00;99.90;;;;;;5094611;28;20450;-80
2022/05/19 03:20:16;;;;;;;7.40;3.58;;;20.00;99.90;;;;;;5111859;28;20147;-80
2022/05/19 03:22:41;;;;;;;9.52;4.00;;;20.00;99.90;;;;;;5106945;28;20026;-81
2022/05/19 03:25:08;;;;;;;6.57;3.67;;;20.00;99.90;;;;;;5090534;28;20016;-81
2022/05/19 03:27:36;;;;;;;7.82;3.55;;;20.00;99.90;;;;;;5123029;28;20094;-81
2022/05/19 03:30:04;;;;;;;5.80;3.67;;;20.00;99.90;;;;;;5104876;28;20039;-80
2022/05/19 03:32:31;;;;;;;4.88;3.58;;;20.00;99.90;;;;;;5089060;28;20088;-81
2022/05/19 03:34:57;;;;;;;5.40;3.65;;;20.00;99.90;;;;;;5108581;28;20030;-80
2022/05/19 03:37:22;;;;;;;11.13;3.53;;;20.00;99.90;;;;;;5108341;28;20024;-81
2022/05/19 03:39:48;;;;;;;5.50;3.10;;;20.10;99.90;;;;;;5090857;28;20035;-81
2022/05/19 03:42:13;;;;;;;5.75;3.03;;;20.10;99.90;;;;;;5108711;28;20035;-81
2022/05/19 03:44:39;;;;;;;10.25;4.07;;;20.10;99.90;;;;;;5108483;28;20164;-81
2022/05/19 03:47:08;;;;;;;14.07;3.78;;;20.20;99.90;;;;;;5103166;28;20028;-81
2022/05/19 03:49:33;;;;;;;8.52;3.50;;;20.20;99.90;;;;;;5132953;28;20062;-81
2022/05/19 03:51:59;;;;;;;6.97;3.72;;;20.20;99.90;;;;;;5125800;27;20495;-81
2022/05/19 03:54:24;;;;;;;5.72;3.38;;;20.20;99.90;;;;;;5115662;28;20064;-80
2022/05/19 03:56:50;;;;;;;6.13;3.33;;;20.30;99.90;;;;;;5114776;28;20052;-81
2022/05/19 03:59:16;;;;;;;8.02;3.30;;;20.30;99.90;;;;;;5096471;28;20022;-80
2022/05/19 04:01:42;;;;;;;4.82;3.25;;;20.30;99.90;;;;;;5101153;27;20019;-81
2022/05/19 04:04:08;;;;;;;4.85;3.25;;;20.30;99.90;;;;;;5123093;27;20048;-81
2022/05/19 04:06:35;;;;;;;6.15;3.22;;;20.30;99.90;;;;;;5126792;27;20011;-81
2022/05/19 04:09:03;;;;;;;5.93;3.20;;;20.30;99.90;;;;;;5096458;28;20024;-81
2022/05/19 04:11:29;;;;;;;10.65;3.08;;;20.40;99.90;;;;;;5113320;28;21396;-81
2022/05/19 04:13:56;;;;;;;6.05;3.20;;;20.40;99.90;;;;;;5101464;28;20032;-81
2022/05/19 04:16:22;;;;;;;8.68;3.25;;;20.30;99.90;;;;;;5106423;28;20425;-81
2022/05/19 04:18:47;;;;;;;11.30;4.65;;;20.40;99.90;;;;;;5090868;28;20036;-81
2022/05/19 04:21:13;;;;;;;10.98;2.83;;;20.30;99.90;;;;;;5097197;28;20110;-80
2022/05/19 04:23:39;;;;;;;9.57;3.50;;;20.30;99.90;;;;;;5114007;28;20463;-80
2022/05/19 04:26:05;;;;;;;5.05;3.22;;;20.30;99.90;;;;;;5110096;28;20020;-80
2022/05/19 04:28:31;;;;;;;7.57;3.15;;;20.30;99.90;;;;;;5095795;28;20103;-81
2022/05/19 04:30:56;;;;;;;5.47;3.55;;;20.30;99.90;;;;;;5110040;27;20036;-80
2022/05/19 04:33:22;;;;;;;10.70;3.33;;;20.30;99.90;;;;;;5115291;27;20102;-81
2022/05/19 04:35:48;;;;;;;5.95;3.47;;;20.30;99.90;;;;;;5091318;28;20024;-80
2022/05/19 04:38:16;;;;;;;4.13;2.97;;;20.40;99.90;;;;;;5101765;27;20032;-80
2022/05/19 04:40:47;;;;;;;7.03;2.95;;;20.30;99.90;;;;;;5111480;27;20107;-80
2022/05/19 04:43:14;;;;;;;7.85;3.17;;;20.40;99.90;;;;;;5112874;27;20027;-80
2022/05/19 04:45:39;;;;;;;5.00;3.30;;;20.40;99.90;;;;;;5088387;28;20037;-80
2022/05/19 04:48:05;;;;;;;9.50;3.75;;;20.40;99.90;;;;;;5108533;27;20163;-80
2022/05/19 04:50:30;;;;;;;9.60;3.55;;;20.40;99.90;;;;;;5112087;28;20034;-80
2022/05/19 04:53:00;;;;;;;9.18;3.75;;;20.40;99.90;;;;;;5104384;27;20482;-80
2022/05/19 04:55:26;;;;;;;5.95;3.15;;;20.40;99.90;;;;;;5114834;28;20092;-80
2022/05/19 04:57:52;;;;;;;8.60;3.70;;;20.40;99.90;;;;;;5114276;28;20088;-80
2022/05/19 05:00:18;;;;;;;6.53;3.67;;;20.40;99.90;;;;;;5118098;27;20015;-80
2022/05/19 05:02:44;;;;;;;8.00;3.60;;;20.40;99.90;;;;;;5095491;28;20024;-80
2022/05/19 05:05:10;;;;;;;7.72;3.20;;;20.40;99.90;;;;;;5114184;27;20483;-80
2022/05/19 05:07:37;;;;;;;8.20;3.78;;;20.40;99.90;;;;;;5115309;28;20031;-81
2022/05/19 05:10:03;;;;;;;7.82;3.38;;;20.40;99.90;;;;;;5095839;27;20054;-80
2022/05/19 05:12:30;;;;;;;7.18;3.45;;;20.40;99.90;;;;;;5114539;27;20024;-80
2022/05/19 05:14:55;;;;;;;7.53;3.13;;;20.40;99.90;;;;;;5114966;27;20096;-80
2022/05/19 05:17:22;;;;;;;10.38;3.75;;;20.40;99.90;;;;;;5095210;28;20070;-80
2022/05/19 05:19:48;;;;;;;5.20;3.33;;;20.50;99.90;;;;;;5114008;28;20110;-81
2022/05/19 05:22:15;;;;;;;6.50;2.92;;;20.50;99.90;;;;;;5114560;27;20023;-81
2022/05/19 05:24:41;;;;;;;6.25;3.20;;;20.50;99.90;;;;;;5114659;27;20024;-80
2022/05/19 05:27:07;;;;;;;6.22;3.40;;;20.50;99.90;;;;;;5101209;28;20107;-80
2022/05/19 05:29:33;;;;;;;6.20;3.10;;;20.50;99.90;;;;;;5101403;28;20056;-80
2022/05/19 05:31:59;;;;;;;8.55;2.72;;;20.50;99.90;;;;;;5114651;28;20023;-80
2022/05/19 05:34:25;;;;;;;7.18;2.60;;;20.50;99.90;;;;;;5094419;28;20367;-79
2022/05/19 05:36:51;;;;;;;8.93;3.22;;;20.50;99.90;;;;;;5117054;27;20024;-79
2022/05/19 05:39:16;;;;;;;5.00;2.80;;;20.60;99.90;;;;;;5114681;27;20034;-79
2022/05/19 05:41:42;;;;;;;7.05;3.33;;;20.70;99.90;;;;;;5108613;28;20028;-79
2022/05/19 05:44:08;;;;;;;14.80;3.38;;;20.60;99.90;;;;;;5093994;28;20036;-79
2022/05/19 05:46:34;;;;;;;14.30;3.22;;;20.70;99.90;;;;;;5075841;28;20024;-79
2022/05/19 05:49:00;;;;;;;6.40;2.95;;;20.70;99.90;;;;;;5110373;27;20406;-79
2022/05/19 05:51:25;;;;;;;5.40;2.60;;;20.70;99.90;;;;;;5093740;28;20038;-79
2022/05/19 05:53:51;;;;;;;3.45;2.70;;;20.70;99.90;;;;;;5134272;27;20035;-79
2022/05/19 05:56:18;;;;;;;3.60;2.63;;;20.70;99.90;;;;;;5128057;27;20027;-79
2022/05/19 05:58:45;;;;;;;5.10;2.60;;;20.70;99.90;;;;;;5115075;27;20042;-80
2022/05/19 06:01:12;;;;;;;10.65;3.08;;;20.70;99.90;;;;;;5134561;27;20367;-80
2022/05/19 06:03:38;;;;;;;5.97;2.72;;;20.80;99.90;;;;;;5133600;27;20039;-79
2022/05/19 06:06:04;;;;;;;10.55;3.60;;;20.80;99.90;;;;;;5115549;27;20103;-81
2022/05/19 06:08:31;;;;;;;4.32;2.78;;;20.80;99.90;;;;;;5107110;28;20091;-80
2022/05/19 06:10:57;;;;;;;5.97;2.95;;;20.90;99.90;;;;;;5090275;28;20054;-80
2022/05/19 06:13:24;;;;;;;11.55;3.83;;;20.90;99.90;;;;;;5108337;28;20489;-80
2022/05/19 06:15:49;;;;;;;3.55;2.55;;;21.00;99.90;;;;;;5107780;28;20467;-80
2022/05/19 06:18:15;;;;;;;5.82;3.05;;;21.00;99.90;;;;;;5093458;28;20031;-80
2022/05/19 06:20:41;;;;;;;24.90;3.35;;;21.10;99.90;;;;;;5098349;28;20103;-82
2022/05/19 06:23:08;;;;;;;6.45;2.97;;;21.10;99.90;;;;;;5094196;28;20016;-79
2022/05/19 06:25:34;;;;;;;10.00;3.40;;;21.20;99.90;;;;;;5128919;27;20019;-80
2022/05/19 06:28:01;;;;;;;8.18;2.90;;;21.30;99.90;;;;;;5124404;27;20521;-79
2022/05/19 06:30:32;;;;;;;6.43;3.58;;;21.40;99.90;;;;;;5102590;28;20495;-80
2022/05/19 06:32:58;;;;;;;5.28;2.60;;;21.40;99.90;;;;;;5109696;28;20349;-80
2022/05/19 06:35:27;;;;;;;6.63;2.92;;;21.40;99.90;;;;;;5105504;28;20031;-79
2022/05/19 06:37:53;;;;;;;13.93;3.42;;;21.40;99.90;;;;;;5112231;28;20026;-79
2022/05/19 06:40:19;;;;;;;6.80;3.20;;;21.40;99.90;;;;;;5113203;28;20325;-79
2022/05/19 06:42:46;;;;;;;7.82;3.50;;;21.50;99.90;;;;;;5113032;28;20023;-79
2022/05/19 06:45:14;;;;;;;7.50;3.00;;;21.50;99.90;;;;;;5113369;28;20034;-79
2022/05/19 06:47:40;;;;;;;8.88;2.80;;;21.60;99.90;;;;;;5113183;28;20011;-79
2022/05/19 06:50:08;;;;;;;8.07;3.30;;;21.60;99.90;;;;;;5112986;28;20496;-80
2022/05/19 06:52:45;;;;;;;6.07;2.60;;;21.60;99.90;;;;;;5113276;28;20026;-79
2022/05/19 06:55:12;;;;;;;4.45;2.67;;;21.60;99.90;;;;;;5094973;28;20024;-80
2022/05/19 06:57:39;;;;;;;6.37;2.80;;;21.60;99.90;;;;;;5094989;28;20020;-79
2022/05/19 07:00:07;;;;;;;6.53;3.03;;;21.60;99.90;;;;;;5112941;28;20157;-80
2022/05/19 07:02:33;;;;;;;5.53;2.83;;;21.60;99.90;;;;;;5113124;28;20337;-80
2022/05/19 07:04:59;;;;;;;4.95;2.75;;;21.70;99.90;;;;;;5112413;28;20145;-79
2022/05/19 07:07:26;;;;;;;4.10;2.80;;;21.70;99.90;;;;;;5094748;28;20100;-80
2022/05/19 07:09:51;;;;;;;9.82;3.22;;;21.80;99.90;;;;;;5094602;28;20035;-80
2022/05/19 07:12:23;;;;;;;7.50;2.50;;;21.80;99.90;;;;;;5113184;28;20153;-80
2022/05/19 07:14:50;;;;;;;7.85;3.67;;;21.90;99.90;;;;;;5112793;28;20114;-79
2022/05/19 07:17:17;;;;;;;7.32;3.78;;;22.00;99.90;;;;;;5112648;28;20045;-80
2022/05/19 07:22:27;;;;;;;5.20;2.70;;;22.10;99.90;;;;;;5113264;28;20027;-79
2022/05/19 07:24:52;;;;;;;9.70;2.80;;;22.20;99.90;;;;;;5112436;28;20024;-79
2022/05/19 07:27:18;;;;;;;10.93;3.50;;;22.30;99.90;;;;;;5115606;28;20022;-79
2022/05/19 07:29:43;;;;;;;6.10;3.25;;;22.30;99.90;;;;;;5098829;28;20030;-79
2022/05/19 07:32:09;;;;;;;5.90;2.80;;;22.30;99.90;;;;;;5116688;28;20072;-80
2022/05/19 07:34:37;;;;;;;10.05;3.63;;;22.30;99.90;;;;;;5098153;28;20020;-80
2022/05/19 07:37:04;;;;;;;6.55;2.65;;;22.30;99.90;;;;;;5116804;28;20023;-80
2022/05/19 07:39:29;;;;;;;11.68;2.80;;;22.40;99.90;;;;;;5098532;28;20149;-79
2022/05/19 07:41:57;;;;;;;7.93;2.53;;;22.40;99.90;;;;;;5116723;28;20054;-79
2022/05/19 07:44:27;;;;;;;5.20;2.85;;;22.50;99.90;;;;;;5116443;28;20032;-80
2022/05/19 07:46:53;;;;;;;9.23;2.50;;;22.60;99.90;;;;;;5098602;28;20016;-80
2022/05/19 07:49:18;;;;;;;9.50;2.70;;;22.70;99.90;;;;;;5116133;28;20107;-79
2022/05/19 07:51:47;;;;;;;5.28;2.60;;;22.80;99.90;;;;;;5116566;28;20065;-80
2022/05/19 07:54:18;;;;;;;4.55;2.65;;;22.90;99.90;;;;;;5098266;28;20494;-79
2022/05/19 07:56:45;;;;;;;8.43;2.85;;;23.00;99.90;;;;;;5094952;28;20026;-79
2022/05/19 07:59:11;;;;;;;11.25;2.55;;;23.00;99.90;;;;;;5115035;27;20479;-79
2022/05/19 08:01:39;;;;;;;3.67;2.42;;;23.00;99.90;;;;;;5096139;28;20998;-80
2022/05/19 08:04:07;;;;;;;7.38;2.83;;;23.00;99.90;;;;;;5121152;27;20039;-79
2022/05/19 08:06:33;;;;;;;3.85;2.28;;;23.00;99.90;;;;;;5117925;27;20030;-80
2022/05/19 08:09:00;;;;;;;8.13;3.50;;;23.00;99.90;;;;;;5114787;28;20031;-80
2022/05/19 08:11:27;;;;;;;7.85;2.75;;;23.10;99.90;;;;;;5094942;28;20426;-80
2022/05/19 08:16:39;;;;;;;6.57;2.50;;;23.20;99.90;;;;;;5101993;28;20550;-79
2022/05/19 08:19:05;;;;;;;5.32;2.45;;;23.20;99.90;;;;;;5115643;28;20027;-79
2022/05/19 08:21:31;;;;;;;3.40;2.25;;;23.30;99.90;;;;;;5097615;28;20028;-79
2022/05/19 08:23:57;;;;;;;4.55;3.13;;;23.30;99.90;;;;;;5095286;28;20058;-80
2022/05/19 08:26:24;;;;;;;3.75;2.28;;;23.40;99.90;;;;;;5110110;28;20028;-80
2022/05/19 08:28:51;;;;;;;5.03;2.60;;;23.50;99.90;;;;;;5102170;28;20032;-79
2022/05/19 08:31:24;;;;;;;6.28;2.67;;;23.50;97.90;;;;;;5095385;28;20023;-79
2022/05/19 08:33:57;;;;;;;7.20;2.80;;;23.60;98.20;;;;;;5087135;28;20034;-80
2022/05/19 08:36:25;;;;;;;5.53;2.47;;;23.60;96.70;;;;;;5115442;28;20153;-80
2022/05/19 08:38:51;;;;;;;6.88;2.75;;;23.60;97.20;;;;;;5112343;28;20031;-79
2022/05/19 08:41:31;;;;;;;4.72;2.13;;;23.70;93.30;;;;;;5113398;28;20084;-79
2022/05/19 08:44:04;;;;;;;3.08;1.90;;;23.70;92.30;;;;;;5108740;28;20111;-80
2022/05/19 08:46:33;;;;;;;3.90;2.10;;;23.70;95.50;;;;;;5113704;28;20352;-80
2022/05/19 08:49:06;;;;;;;3.30;2.28;;;23.70;97.30;;;;;;5115567;27;20023;-80
2022/05/19 08:51:39;;;;;;;13.77;2.22;;;23.70;96.30;;;;;;5097298;28;20032;-80
2022/05/19 08:54:08;;;;;;;8.95;2.58;;;23.80;97.90;;;;;;5115287;28;20023;-80
2022/05/19 08:56:47;;;;;;;8.35;2.83;;;23.90;94.10;;;;;;5115387;28;20032;-80
2022/05/19 08:59:24;;;;;;;7.60;2.45;;;24.00;88.30;;;;;;5115375;28;20024;-81
2022/05/19 09:01:59;;;;;;;6.90;2.80;;;24.10;85.70;;;;;;5115288;28;20524;-79
2022/05/19 09:04:52;;;;;;;9.82;2.42;;;24.20;85.70;;;;;;5096279;28;20040;-80
2022/05/19 09:07:58;;;;;;;7.75;2.70;;;24.30;90.10;;;;;;5115393;28;20367;-80
2022/05/19 09:10:42;;;;;;;11.50;2.57;;;24.40;76.60;;;;;;5115166;28;20099;-79
2022/05/19 09:13:30;;;;;;;5.05;1.92;;;24.40;81.60;;;;;;5114926;28;20257;-80
2022/05/19 09:15:56;;;;;;;2.75;2.33;;;24.40;81.30;;;;;;5115251;28;20020;-80
2022/05/19 09:18:33;;;;;;;4.25;2.67;;;24.40;86.10;;;;;;5114543;28;20019;-80
2022/05/19 09:21:00;;;;;;;3.90;2.38;;;24.30;85.70;;;;;;5115055;28;20050;-81
2022/05/19 09:23:27;;;;;;;2.90;2.30;;;24.40;91.40;;;;;;5113725;28;20136;-81
2022/05/19 09:26:17;;;;;;;4.00;2.55;;;24.40;90.70;;;;;;5114980;28;20530;-80
2022/05/19 09:28:47;;;;;;;3.80;2.10;;;24.40;88.10;;;;;;5114695;28;20028;-80
2022/05/19 09:31:15;;;;;;;6.30;2.30;;;24.50;80.90;;;;;;5114819;28;20032;-80
2022/05/19 09:33:47;;;;;;;4.38;2.50;;;24.50;78.80;;;;;;5109092;28;20480;-80
2022/05/19 09:36:14;;;;;;;4.80;2.22;;;24.60;71.10;;;;;;5094965;28;20024;-79
2022/05/19 09:38:49;;;;;;;5.40;1.92;;;24.70;74.00;;;;;;5094208;28;20035;-80
2022/05/19 09:41:39;;;;;;;9.57;2.30;;;24.80;73.60;;;;;;5108246;28;20502;-80
2022/05/19 09:44:10;;;;;;;3.20;1.90;;;24.90;73.30;;;;;;5114079;28;20031;-79
2022/05/19 09:46:47;;;;;;;6.45;2.30;;;25.00;73.90;;;;;;5112710;28;20106;-80
2022/05/19 09:49:33;;;;;;;13.27;2.60;;;25.10;71.80;;;;;;5111460;28;20059;-80
2022/05/19 09:52:05;;;;;;;4.78;2.50;;;25.20;70.30;;;;;;5114188;28;20028;-81
2022/05/19 09:54:34;;;;;;;5.05;2.78;;;25.30;68.70;;;;;;5111309;28;20024;-81
2022/05/19 09:57:13;;;;;;;7.40;2.50;;;25.30;77.50;;;;;;5109593;28;20029;-81
2022/05/19 09:59:48;;;;;;;5.00;2.75;;;25.40;74.00;;;;;;5111203;28;20073;-80
2022/05/19 10:02:25;;;;;;;8.55;2.17;;;25.40;63.50;;;;;;5127036;27;20122;-80
2022/05/19 10:04:57;;;;;;;4.28;2.33;;;25.50;60.70;;;;;;5110629;28;20050;-80
2022/05/19 10:07:34;;;;;;;3.72;2.40;;;25.40;59.00;;;;;;5111395;28;20020;-80
2022/05/19 10:10:00;;;;;;;9.02;2.47;;;25.50;61.10;;;;;;5111564;28;20027;-80
2022/05/19 10:12:44;;;;;;;16.10;2.42;;;25.50;63.70;;;;;;5113367;28;20023;-81
2022/05/19 10:15:14;;;;;;;4.50;2.03;;;25.60;59.50;;;;;;5112834;28;20065;-80
2022/05/19 10:18:18;;;;;;;7.70;2.47;;;25.60;57.30;;;;;;5112557;28;20035;-81
2022/05/19 10:20:53;;;;;;;5.63;2.53;;;25.70;57.60;;;;;;5072432;28;20035;-81
2022/05/19 10:23:39;;;;;;;6.38;2.40;;;25.80;57.40;;;;;;5111808;28;20412;-81
2022/05/19 10:26:29;;;;;;;7.53;3.85;;;25.80;56.60;;;;;;5118310;27;20027;-82
2022/05/19 10:33:00;;;;;;;6.47;2.20;;;25.90;54.80;;;;;;5094742;28;20035;-81
2022/05/19 10:35:36;;;;;;;5.63;2.42;;;25.90;55.80;;;;;;5012015;28;20097;-81
2022/05/19 10:38:30;;;;;;;6.88;1.88;;;25.90;55.30;;;;;;5096115;28;20043;-81
2022/05/19 10:41:35;;;;;;;3.17;2.20;;;25.90;59.20;;;;;;5107216;28;20023;-81
2022/05/19 10:44:25;;;;;;;5.30;2.10;;;26.00;57.70;;;;;;5107446;28;20429;-81
2022/05/19 10:47:27;;;;;;;7.82;1.92;;;26.10;55.70;;;;;;5111918;28;20479;-81
2022/05/19 10:50:13;;;;;;;5.63;2.55;;;26.10;56.40;;;;;;5106909;28;20439;-81
2022/05/19 10:52:53;;;;;;;5.57;2.38;;;26.20;58.30;;;;;;5100254;28;20034;-81
2022/05/19 10:55:39;;;;;;;10.88;2.63;;;26.30;58.20;;;;;;5092885;28;20027;-81
2022/05/19 10:58:46;;;;;;;7.43;2.20;;;26.30;57.80;;;;;;5105091;28;20038;-81
2022/05/19 11:01:22;;;;;;;;;;;26.40;57.90;;;;;;5113784;28;20023;-82
2022/05/19 11:03:58;;;;;;;4.82;1.70;;;26.40;55.10;;;;;;5112137;28;19915;-82
2022/05/19 11:06:42;;;;;;;8.85;2.00;;;26.40;55.00;;;;;;5093872;28;20490;-81
2022/05/19 11:09:26;;;;;;;3.33;1.80;;;26.40;54.60;;;;;;5108382;28;20027;-81
2022/05/19 11:12:30;;;;;;;5.45;2.17;;;26.40;54.00;;;;;;5093112;28;20059;-82
2022/05/19 11:15:19;;;;;;;2.25;1.75;;;26.40;53.70;;;;;;5091207;28;20035;-81
2022/05/19 11:18:07;;;;;;;3.30;1.90;;;26.40;57.30;;;;;;5091919;28;20069;-81
2022/05/19 11:21:16;;;;;;;5.03;2.40;;;26.50;55.70;;;;;;5104257;28;20422;-81
2022/05/19 11:24:00;;;;;;;5.70;2.50;;;26.50;55.70;;;;;;5042039;28;20521;-81
2022/05/19 11:26:46;;;;;;;3.45;2.30;;;26.60;57.00;;;;;;5114519;28;20028;-82
2022/05/19 11:29:45;;;;;;;5.45;1.95;;;26.70;57.00;;;;;;5091144;28;20093;-80
2022/05/19 11:32:27;;;;;;;4.22;2.25;;;26.90;60.40;;;;;;5111600;28;20032;-81
2022/05/19 11:35:09;;;;;;;7.80;2.45;;;26.90;59.40;;;;;;5111208;28;20031;-81
2022/05/19 11:37:44;;;;;;;10.27;2.28;;;26.90;59.40;;;;;;5108653;28;20031;-83
2022/05/19 11:40:42;;;;;;;13.30;3.08;;;26.90;57.60;;;;;;5102859;28;20114;-82
2022/05/19 11:43:34;;;;;;;13.82;2.22;;;26.80;56.30;;;;;;5110926;28;20059;-82
2022/05/19 11:46:18;;;;;;;2.25;1.60;;;26.80;56.10;;;;;;5103458;28;20544;-81
2022/05/19 11:55:13;;;;;;;4.85;1.95;;;26.90;56.70;;;;;;5106644;28;20078;-82
2022/05/19 11:58:10;;;;;;;6.10;2.78;;;27.00;55.80;;;;;;5099279;28;20042;-82
2022/05/19 12:01:00;;;;;;;6.07;2.13;;;27.00;53.80;;;;;;5107311;28;20114;-81
2022/05/19 12:03:34;;;;;;;7.65;2.10;;;27.10;52.70;;;;;;5116110;28;20054;-82
2022/05/19 12:06:17;;;;;;;4.80;2.85;;;27.20;52.10;;;;;;5090652;28;20503;-82
2022/05/19 12:09:05;;;;;;;8.82;2.40;;;27.20;54.30;;;;;;5101648;28;20031;-82
2022/05/19 12:11:46;;;;;;;4.45;1.98;;;27.20;54.10;;;;;;5096576;28;20032;-81
2022/05/19 12:14:15;;;;;;;5.50;2.78;;;27.30;57.60;;;;;;5108358;28;20053;-82
2022/05/19 12:16:59;;;;;;;5.20;1.92;;;27.40;56.20;;;;;;5115715;28;20454;-82
2022/05/19 12:19:56;;;;;;;4.15;2.13;;;27.40;56.90;;;;;;5110334;27;20113;-82
2022/05/19 12:22:30;;;;;;;5.32;2.08;;;27.50;54.40;;;;;;5132421;27;20023;-82
2022/05/19 12:25:07;;;;;;;5.05;2.55;;;27.60;52.50;;;;;;5115472;28;20016;-81
2022/05/19 12:27:36;;;;;;;9.35;3.03;;;27.70;53.50;;;;;;5115976;28;20479;-81
2022/05/19 12:33:16;;;;;;;4.57;2.20;;;27.70;53.90;;;;;;5112291;28;20039;-82
2022/05/19 12:35:47;;;;;;;6.13;2.30;;;27.70;54.40;;;;;;5115581;28;20032;-81
2022/05/19 12:38:46;;;;;;;2.80;2.30;;;27.80;54.50;;;;;;5114100;28;20019;-82
2022/05/19 12:41:24;;;;;;;7.25;2.20;;;27.90;54.50;;;;;;5069043;28;20040;-81
2022/05/19 12:43:51;;;;;;;8.38;2.00;;;27.90;53.90;;;;;;5115070;27;20506;-81
2022/05/19 12:46:38;;;;;;;4.25;2.22;;;27.90;54.10;;;;;;5116124;27;20386;-81
2022/05/19 12:49:35;;;;;;;9.15;2.65;;;27.90;52.30;;;;;;5106038;28;20447;-82
2022/05/19 12:52:19;;;;;;;7.97;2.33;;;27.80;51.50;;;;;;5096090;28;20119;-81
2022/05/19 12:55:24;;;;;;;3.55;2.00;;;27.80;52.20;;;;;;5111711;28;20115;-82
2022/05/19 12:57:52;;;;;;;4.85;1.88;;;27.70;51.20;;;;;;5111046;28;20444;-82
2022/05/19 13:00:19;;;;;;;2.53;1.83;;;27.70;52.60;;;;;;5114215;27;20398;-81
2022/05/19 13:03:08;;;;;;;4.07;2.20;;;27.70;50.50;;;;;;5109607;27;20891;-82
2022/05/19 13:05:55;;;;;;;5.47;1.58;;;27.60;51.30;;;;;;5059854;28;20025;-80
2022/05/19 13:08:38;;;;;;;2.65;1.80;;;27.60;54.20;;;;;;5075259;28;20114;-81
2022/05/19 13:11:18;;;;;;;7.40;2.47;;;27.40;53.50;;;;;;5081869;28;20516;-81
2022/05/19 13:13:57;;;;;;;3.85;1.85;;;27.40;52.30;;;;;;5072860;28;20175;-80
2022/05/19 13:16:37;;;;;;;4.03;1.80;;;27.40;52.20;;;;;;5075763;28;20040;-81
2022/05/19 13:19:14;;;;;;;4.22;2.60;;;27.30;53.00;;;;;;5075785;28;20032;-80
2022/05/19 13:22:06;;;;;;;6.57;2.08;;;27.40;52.50;;;;;;5075590;28;20111;-81
2022/05/19 13:24:38;;;;;;;5.35;1.98;;;27.50;50.70;;;;;;5083475;28;20024;-80
2022/05/19 13:32:38;;;;;;;6.65;2.03;;;27.50;54.10;;;;;;5094135;28;20034;-81
2022/05/19 13:35:15;;;;;;;11.18;2.13;;;27.50;51.60;;;;;;5089459;28;20028;-80
2022/05/19 13:37:43;;;;;;;4.20;2.17;;;27.60;53.30;;;;;;5089858;28;20028;-81